sensor_id;sensor_type;location;lat;lon;timestamp;temperature;humidity
23813;DHT22;12087;45.190;5.688;2023-12-20T00:03:34;5.10;99.90
23813;DHT22;12087;45.190;5.688;2023-12-20T00:08:57;5.10;99.90
23813;DHT22;12087;45.190;5.688;2023-12-20T00:14:20;5.10;99.90
23813;DHT22;12087;45.190;5.688;2023-12-20T00:19:44;5.20;99.90
23813;DHT22;12087;45.190;5.688;2023-12-20T00:25:07;5.20;99.90
23813;DHT22;12087;45.190;5.688;2023-12-20T00:30:30;5.30;99.90
23813;DHT22;12087;45.190;5.688;2023-12-20T00:35:53;5.30;99.90
23813;DHT22;12087;45.190;5.688;2023-12-20T00:41:15;5.30;99.90
23813;DHT22;12087;45.190;5.688;2023-12-20T00:46:38;5.30;99.90
23813;DHT22;12087;45.190;5.688;2023-12-20T00:52:01;5.40;99.90
23813;DHT22;12087;45.190;5.688;2023-12-20T00:57:23;5.40;99.90
23813;DHT22;12087;45.190;5.688;2023-12-20T01:02:46;5.40;99.90
23813;DHT22;12087;45.190;5.688;2023-12-20T01:08:12;5.40;99.90
23813;DHT22;12087;45.190;5.688;2023-12-20T01:13:34;5.50;99.90
23813;DHT22;12087;45.190;5.688;2023-12-20T01:18:57;5.50;99.90
23813;DHT22;12087;45.190;5.688;2023-12-20T01:24:20;5.50;99.90
23813;DHT22;12087;45.190;5.688;2023-12-20T01:29:43;5.60;99.90
23813;DHT22;12087;45.190;5.688;2023-12-20T01:35:05;5.60;99.90
23813;DHT22;12087;45.190;5.688;2023-12-20T01:40:28;5.60;99.90
23813;DHT22;12087;45.190;5.688;2023-12-20T01:45:51;5.60;99.90
23813;DHT22;12087;45.190;5.688;2023-12-20T01:51:14;5.60;99.90
23813;DHT22;12087;45.190;5.688;2023-12-20T01:56:38;5.60;99.90
23813;DHT22;12087;45.190;5.688;2023-12-20T02:02:02;5.60;99.90
23813;DHT22;12087;45.190;5.688;2023-12-20T02:07:25;5.60;99.90
23813;DHT22;12087;45.190;5.688;2023-12-20T02:12:50;5.70;99.90
23813;DHT22;12087;45.190;5.688;2023-12-20T02:18:12;5.70;99.90
23813;DHT22;12087;45.190;5.688;2023-12-20T02:23:38;5.70;99.90
23813;DHT22;12087;45.190;5.688;2023-12-20T02:29:01;5.70;99.90
23813;DHT22;12087;45.190;5.688;2023-12-20T02:34:24;5.70;99.90
23813;DHT22;12087;45.190;5.688;2023-12-20T02:39:47;5.70;99.90
23813;DHT22;12087;45.190;5.688;2023-12-20T02:45:10;5.70;99.90
23813;DHT22;12087;45.190;5.688;2023-12-20T02:50:32;5.80;99.90
23813;DHT22;12087;45.190;5.688;2023-12-20T02:55:55;5.80;99.90
23813;DHT22;12087;45.190;5.688;2023-12-20T03:01:18;5.90;99.90
23813;DHT22;12087;45.190;5.688;2023-12-20T03:06:40;5.90;99.90
23813;DHT22;12087;45.190;5.688;2023-12-20T03:12:04;5.90;99.90
23813;DHT22;12087;45.190;5.688;2023-12-20T03:17:26;6.00;99.90
23813;DHT22;12087;45.190;5.688;2023-12-20T03:22:49;5.90;99.90
23813;DHT22;12087;45.190;5.688;2023-12-20T03:28:14;6.00;99.90
23813;DHT22;12087;45.190;5.688;2023-12-20T03:33:37;5.90;99.90
23813;DHT22;12087;45.190;5.688;2023-12-20T03:38:59;5.90;99.90
23813;DHT22;12087;45.190;5.688;2023-12-20T03:44:22;5.90;99.90
23813;DHT22;12087;45.190;5.688;2023-12-20T03:49:45;5.80;99.90
23813;DHT22;12087;45.190;5.688;2023-12-20T03:55:07;5.80;99.90
23813;DHT22;12087;45.190;5.688;2023-12-20T04:00:31;5.70;99.90
23813;DHT22;12087;45.190;5.688;2023-12-20T04:05:53;5.70;99.90
23813;DHT22;12087;45.190;5.688;2023-12-20T04:11:16;5.80;99.90
23813;DHT22;12087;45.190;5.688;2023-12-20T04:16:40;5.70;99.90
23813;DHT22;12087;45.190;5.688;2023-12-20T04:22:03;5.70;99.90
23813;DHT22;12087;45.190;5.688;2023-12-20T04:27:26;5.70;99.90
23813;DHT22;12087;45.190;5.688;2023-12-20T04:32:49;5.70;99.90
23813;DHT22;12087;45.190;5.688;2023-12-20T04:38:11;5.60;99.90
23813;DHT22;12087;45.190;5.688;2023-12-20T04:43:34;5.50;99.90
23813;DHT22;12087;45.190;5.688;2023-12-20T04:48:57;5.50;99.90
23813;DHT22;12087;45.190;5.688;2023-12-20T04:54:19;5.40;99.90
23813;DHT22;12087;45.190;5.688;2023-12-20T04:59:42;5.50;99.90
23813;DHT22;12087;45.190;5.688;2023-12-20T05:05:06;5.50;99.90
23813;DHT22;12087;45.190;5.688;2023-12-20T05:10:28;5.50;99.90
23813;DHT22;12087;45.190;5.688;2023-12-20T05:15:50;5.50;99.90
23813;DHT22;12087;45.190;5.688;2023-12-20T05:21:14;5.50;99.90
23813;DHT22;12087;45.190;5.688;2023-12-20T05:26:36;5.50;99.90
23813;DHT22;12087;45.190;5.688;2023-12-20T05:31:58;5.50;99.90
23813;DHT22;12087;45.190;5.688;2023-12-20T05:37:22;5.50;99.90
23813;DHT22;12087;45.190;5.688;2023-12-20T05:42:44;5.50;99.90
23813;DHT22;12087;45.190;5.688;2023-12-20T05:48:07;5.60;99.90
23813;DHT22;12087;45.190;5.688;2023-12-20T05:53:30;5.50;99.90
23813;DHT22;12087;45.190;5.688;2023-12-20T05:58:53;5.60;99.90
23813;DHT22;12087;45.190;5.688;2023-12-20T06:04:15;5.60;99.90
23813;DHT22;12087;45.190;5.688;2023-12-20T06:09:39;5.60;99.90
23813;DHT22;12087;45.190;5.688;2023-12-20T06:15:01;5.60;99.90
23813;DHT22;12087;45.190;5.688;2023-12-20T06:20:23;5.60;99.90
23813;DHT22;12087;45.190;5.688;2023-12-20T06:25:47;5.60;99.90
23813;DHT22;12087;45.190;5.688;2023-12-20T06:31:09;5.60;99.90
23813;DHT22;12087;45.190;5.688;2023-12-20T06:36:31;5.60;99.90
23813;DHT22;12087;45.190;5.688;2023-12-20T06:41:55;5.60;99.90
23813;DHT22;12087;45.190;5.688;2023-12-20T06:47:17;5.50;99.90
23813;DHT22;12087;45.190;5.688;2023-12-20T06:52:39;5.50;99.90
23813;DHT22;12087;45.190;5.688;2023-12-20T06:58:03;5.50;99.90
23813;DHT22;12087;45.190;5.688;2023-12-20T07:03:25;5.50;99.90
23813;DHT22;12087;45.190;5.688;2023-12-20T07:08:47;5.50;99.90
23813;DHT22;12087;45.190;5.688;2023-12-20T07:14:11;5.50;99.90
23813;DHT22;12087;45.190;5.688;2023-12-20T07:19:33;5.50;99.90
23813;DHT22;12087;45.190;5.688;2023-12-20T07:24:55;5.50;99.90
23813;DHT22;12087;45.190;5.688;2023-12-20T07:30:19;5.50;99.90
23813;DHT22;12087;45.190;5.688;2023-12-20T07:35:41;5.50;99.90
23813;DHT22;12087;45.190;5.688;2023-12-20T07:41:05;5.50;99.90
23813;DHT22;12087;45.190;5.688;2023-12-20T07:46:29;5.60;99.90
23813;DHT22;12087;45.190;5.688;2023-12-20T07:51:51;5.60;99.90
23813;DHT22;12087;45.190;5.688;2023-12-20T07:57:13;5.60;99.90
23813;DHT22;12087;45.190;5.688;2023-12-20T08:02:37;5.60;99.90
23813;DHT22;12087;45.190;5.688;2023-12-20T08:08:00;5.60;99.90
23813;DHT22;12087;45.190;5.688;2023-12-20T08:13:22;5.60;99.90
23813;DHT22;12087;45.190;5.688;2023-12-20T08:18:48;5.60;99.90
23813;DHT22;12087;45.190;5.688;2023-12-20T08:24:10;5.60;99.90
23813;DHT22;12087;45.190;5.688;2023-12-20T08:29:32;5.70;99.90
23813;DHT22;12087;45.190;5.688;2023-12-20T08:34:56;5.70;99.90
23813;DHT22;12087;45.190;5.688;2023-12-20T08:40:18;5.70;99.90
23813;DHT22;12087;45.190;5.688;2023-12-20T08:45:41;5.60;99.90
23813;DHT22;12087;45.190;5.688;2023-12-20T08:51:04;5.70;99.90
23813;DHT22;12087;45.190;5.688;2023-12-20T08:56:29;5.80;99.90
23813;DHT22;12087;45.190;5.688;2023-12-20T09:01:51;5.80;99.90
23813;DHT22;12087;45.190;5.688;2023-12-20T09:07:25;5.80;99.90
23813;DHT22;12087;45.190;5.688;2023-12-20T09:12:48;5.90;99.90
23813;DHT22;12087;45.190;5.688;2023-12-20T09:18:10;5.90;99.90
23813;DHT22;12087;45.190;5.688;2023-12-20T09:23:34;6.00;99.90
23813;DHT22;12087;45.190;5.688;2023-12-20T09:28:57;6.10;99.90
23813;DHT22;12087;45.190;5.688;2023-12-20T09:34:19;6.30;99.90
23813;DHT22;12087;45.190;5.688;2023-12-20T09:39:43;6.30;99.90
23813;DHT22;12087;45.190;5.688;2023-12-20T09:45:08;6.50;99.90
23813;DHT22;12087;45.190;5.688;2023-12-20T09:50:30;6.70;99.90
23813;DHT22;12087;45.190;5.688;2023-12-20T09:55:58;6.80;99.90
23813;DHT22;12087;45.190;5.688;2023-12-20T10:01:27;7.00;99.90
23813;DHT22;12087;45.190;5.688;2023-12-20T10:07:05;7.10;99.90
23813;DHT22;12087;45.190;5.688;2023-12-20T10:12:34;7.20;99.90
23813;DHT22;12087;45.190;5.688;2023-12-20T10:18:00;7.30;99.90
23813;DHT22;12087;45.190;5.688;2023-12-20T10:23:27;7.40;99.90
23813;DHT22;12087;45.190;5.688;2023-12-20T10:29:10;7.50;99.90
23813;DHT22;12087;45.190;5.688;2023-12-20T11:11:10;7.90;99.90
23813;DHT22;12087;45.190;5.688;2023-12-20T11:17:14;8.00;99.90
23813;DHT22;12087;45.190;5.688;2023-12-20T11:34:34;8.20;99.90
23813;DHT22;12087;45.190;5.688;2023-12-20T11:40:02;8.30;99.90
23813;DHT22;12087;45.190;5.688;2023-12-20T11:45:51;8.30;99.90
23813;DHT22;12087;45.190;5.688;2023-12-20T11:51:17;8.30;99.90
23813;DHT22;12087;45.190;5.688;2023-12-20T11:56:40;8.30;99.90
23813;DHT22;12087;45.190;5.688;2023-12-20T13:25:43;8.70;99.90
23813;DHT22;12087;45.190;5.688;2023-12-20T13:31:06;8.80;99.90
23813;DHT22;12087;45.190;5.688;2023-12-20T13:36:28;8.70;99.90
23813;DHT22;12087;45.190;5.688;2023-12-20T13:41:52;8.60;99.90
23813;DHT22;12087;45.190;5.688;2023-12-20T13:47:14;8.50;99.90
23813;DHT22;12087;45.190;5.688;2023-12-20T13:52:36;8.40;99.90
23813;DHT22;12087;45.190;5.688;2023-12-20T13:58:00;8.30;99.90
23813;DHT22;12087;45.190;5.688;2023-12-20T14:03:22;8.20;99.90
23813;DHT22;12087;45.190;5.688;2023-12-20T14:08:44;8.20;99.90
23813;DHT22;12087;45.190;5.688;2023-12-20T14:14:08;8.20;99.90
23813;DHT22;12087;45.190;5.688;2023-12-20T14:19:30;8.20;99.90
23813;DHT22;12087;45.190;5.688;2023-12-20T14:24:52;8.20;99.90
23813;DHT22;12087;45.190;5.688;2023-12-20T14:30:16;8.30;99.90
23813;DHT22;12087;45.190;5.688;2023-12-20T14:35:38;8.20;99.90
23813;DHT22;12087;45.190;5.688;2023-12-20T14:41:01;8.20;99.90
23813;DHT22;12087;45.190;5.688;2023-12-20T14:46:26;8.10;99.90
23813;DHT22;12087;45.190;5.688;2023-12-20T14:51:49;8.00;99.90
23813;DHT22;12087;45.190;5.688;2023-12-20T14:57:11;8.00;99.90
23813;DHT22;12087;45.190;5.688;2023-12-20T15:02:34;7.90;99.90
23813;DHT22;12087;45.190;5.688;2023-12-20T15:07:57;7.90;99.90
23813;DHT22;12087;45.190;5.688;2023-12-20T15:13:19;7.80;99.90
23813;DHT22;12087;45.190;5.688;2023-12-20T15:18:42;7.80;99.90
23813;DHT22;12087;45.190;5.688;2023-12-20T15:24:06;7.70;99.90
23813;DHT22;12087;45.190;5.688;2023-12-20T15:29:35;7.70;99.90
23813;DHT22;12087;45.190;5.688;2023-12-20T15:34:58;7.70;99.90
23813;DHT22;12087;45.190;5.688;2023-12-20T15:40:20;7.70;99.90
23813;DHT22;12087;45.190;5.688;2023-12-20T15:45:43;7.70;99.90
23813;DHT22;12087;45.190;5.688;2023-12-20T15:51:08;7.70;99.90
23813;DHT22;12087;45.190;5.688;2023-12-20T15:56:31;7.70;99.90
23813;DHT22;12087;45.190;5.688;2023-12-20T16:01:53;7.60;99.90
23813;DHT22;12087;45.190;5.688;2023-12-20T16:07:16;7.60;99.90
23813;DHT22;12087;45.190;5.688;2023-12-20T16:13:38;7.60;99.90
23813;DHT22;12087;45.190;5.688;2023-12-20T16:19:00;7.50;99.90
23813;DHT22;12087;45.190;5.688;2023-12-20T16:30:45;7.50;99.90
23813;DHT22;12087;45.190;5.688;2023-12-20T16:36:08;7.50;99.90
23813;DHT22;12087;45.190;5.688;2023-12-20T16:41:30;7.50;99.90
23813;DHT22;12087;45.190;5.688;2023-12-20T16:47:16;7.50;99.90
23813;DHT22;12087;45.190;5.688;2023-12-20T16:52:39;7.40;99.90
23813;DHT22;12087;45.190;5.688;2023-12-20T16:58:01;7.40;99.90
23813;DHT22;12087;45.190;5.688;2023-12-20T17:03:40;7.40;99.90
23813;DHT22;12087;45.190;5.688;2023-12-20T17:09:02;7.40;99.90
23813;DHT22;12087;45.190;5.688;2023-12-20T17:14:42;7.40;99.90
23813;DHT22;12087;45.190;5.688;2023-12-20T17:20:23;7.30;99.90
23813;DHT22;12087;45.190;5.688;2023-12-20T17:25:46;7.40;99.90
23813;DHT22;12087;45.190;5.688;2023-12-20T17:31:08;7.30;99.90
23813;DHT22;12087;45.190;5.688;2023-12-20T17:43:25;7.30;99.90
23813;DHT22;12087;45.190;5.688;2023-12-20T17:49:07;7.30;99.90
23813;DHT22;12087;45.190;5.688;2023-12-20T17:54:29;7.30;99.90
23813;DHT22;12087;45.190;5.688;2023-12-20T17:59:53;7.30;99.90
23813;DHT22;12087;45.190;5.688;2023-12-20T18:05:15;7.30;99.90
23813;DHT22;12087;45.190;5.688;2023-12-20T18:10:38;7.30;99.90
23813;DHT22;12087;45.190;5.688;2023-12-20T18:16:03;7.30;99.90
23813;DHT22;12087;45.190;5.688;2023-12-20T18:21:30;7.30;99.90
23813;DHT22;12087;45.190;5.688;2023-12-20T18:26:52;7.20;99.90
23813;DHT22;12087;45.190;5.688;2023-12-20T18:32:15;7.20;99.90
23813;DHT22;12087;45.190;5.688;2023-12-20T18:37:38;7.20;99.90
23813;DHT22;12087;45.190;5.688;2023-12-20T18:43:00;7.20;99.90
23813;DHT22;12087;45.190;5.688;2023-12-20T18:48:24;7.20;99.90
23813;DHT22;12087;45.190;5.688;2023-12-20T18:53:46;7.20;99.90
23813;DHT22;12087;45.190;5.688;2023-12-20T18:59:08;7.10;99.90
23813;DHT22;12087;45.190;5.688;2023-12-20T19:04:33;7.10;99.90
23813;DHT22;12087;45.190;5.688;2023-12-20T19:09:55;7.10;99.90
23813;DHT22;12087;45.190;5.688;2023-12-20T19:15:17;7.00;99.90
23813;DHT22;12087;45.190;5.688;2023-12-20T19:20:41;7.00;99.90
23813;DHT22;12087;45.190;5.688;2023-12-20T19:48:13;6.80;99.90
23813;DHT22;12087;45.190;5.688;2023-12-20T19:53:36;6.70;99.90
23813;DHT22;12087;45.190;5.688;2023-12-20T19:59:01;6.70;99.90
23813;DHT22;12087;45.190;5.688;2023-12-20T20:04:25;6.70;99.90
23813;DHT22;12087;45.190;5.688;2023-12-20T20:09:47;6.60;99.90
23813;DHT22;12087;45.190;5.688;2023-12-20T20:15:10;6.60;99.90
23813;DHT22;12087;45.190;5.688;2023-12-20T20:40:15;6.40;99.90
23813;DHT22;12087;45.190;5.688;2023-12-20T21:05:15;6.10;99.90
23813;DHT22;12087;45.190;5.688;2023-12-20T21:10:37;6.00;99.90
23813;DHT22;12087;45.190;5.688;2023-12-20T21:16:07;6.00;99.90
23813;DHT22;12087;45.190;5.688;2023-12-20T21:28:20;6.00;99.90
23813;DHT22;12087;45.190;5.688;2023-12-20T21:33:55;6.00;99.90
23813;DHT22;12087;45.190;5.688;2023-12-20T21:46:25;5.90;99.90
23813;DHT22;12087;45.190;5.688;2023-12-20T21:52:05;5.80;99.90
23813;DHT22;12087;45.190;5.688;2023-12-20T21:57:37;5.80;99.90
23813;DHT22;12087;45.190;5.688;2023-12-20T22:03:03;5.80;99.90
23813;DHT22;12087;45.190;5.688;2023-12-20T22:08:29;5.80;99.90
23813;DHT22;12087;45.190;5.688;2023-12-20T22:13:52;5.70;99.90
23813;DHT22;12087;45.190;5.688;2023-12-20T22:19:16;5.70;99.90
23813;DHT22;12087;45.190;5.688;2023-12-20T22:24:39;5.70;99.90
23813;DHT22;12087;45.190;5.688;2023-12-20T22:30:01;5.70;99.90
23813;DHT22;12087;45.190;5.688;2023-12-20T22:35:34;5.70;99.90
23813;DHT22;12087;45.190;5.688;2023-12-20T22:41:48;5.70;99.90
23813;DHT22;12087;45.190;5.688;2023-12-20T23:44:41;5.80;99.90
23813;DHT22;12087;45.190;5.688;2023-12-20T23:50:04;5.80;99.90
23813;DHT22;12087;45.190;5.688;2023-12-20T23:55:27;5.90;99.90
